Time;durP1;ratioP1;P1;durP2;ratioP2;P2;SDS_P1;SDS_P2;PMS_P1;PMS_P2;Temp;Humidity;BMP_temperature;BMP_pressure;BME280_temperature;BME280_humidity;BME280_pressure;Samples;Min_cycle;Max_cycle;Signal;HPM_P1;HPM_P2
2023/02/02 00:01:56;;;;;;;0.60;0.60;;;6.30;99.90;;;;;;5039742;28;20670;-86
2023/02/02 00:04:26;;;;;;;0.60;0.40;;;6.30;99.90;;;;;;5073275;28;20262;-86
2023/02/02 00:06:52;;;;;;;1.60;1.60;;;6.40;99.90;;;;;;5055477;28;20654;-86
2023/02/02 00:09:19;;;;;;;1.87;1.73;;;6.40;99.90;;;;;;5055232;28;20175;-86
2023/02/02 00:11:47;;;;;;;1.50;0.53;;;6.40;99.90;;;;;;5055013;28;20173;-86
2023/02/02 00:14:12;;;;;;;1.73;1.60;;;6.50;99.90;;;;;;5055560;28;20276;-86
2023/02/02 00:16:45;;;;;;;0.70;0.70;;;6.60;99.90;;;;;;5022322;28;20657;-86
2023/02/02 00:19:17;;;;;;;2.47;1.80;;;6.60;99.90;;;;;;5072319;28;20634;-85
2023/02/02 00:21:43;;;;;;;6.70;1.60;;;6.60;99.90;;;;;;5055278;28;20189;-86
2023/02/02 00:24:11;;;;;;;4.90;2.03;;;6.60;99.90;;;;;;5055280;28;20203;-86
2023/02/02 00:26:38;;;;;;;3.67;3.00;;;6.70;99.90;;;;;;5054861;28;20252;-85
2023/02/02 00:29:05;;;;;;;4.27;2.40;;;6.70;99.90;;;;;;5054875;28;20223;-87
2023/02/02 00:31:31;;;;;;;1.03;1.03;;;6.70;99.90;;;;;;5022129;28;20181;-86
2023/02/02 00:33:57;;;;;;;0.20;0.20;;;6.60;99.90;;;;;;5038659;28;20615;-87
2023/02/02 00:36:22;;;;;;;19.87;3.20;;;6.70;99.90;;;;;;5054747;28;20339;-86
2023/02/02 00:38:49;;;;;;;1.40;0.90;;;6.70;99.90;;;;;;5054937;28;20257;-86
2023/02/02 00:41:16;;;;;;;0.77;0.77;;;6.70;99.90;;;;;;5038280;28;20488;-86
2023/02/02 00:43:42;;;;;;;5.43;1.37;;;6.70;99.90;;;;;;5072416;28;20185;-86
2023/02/02 00:46:17;;;;;;;2.53;0.97;;;6.70;99.90;;;;;;5038005;28;20178;-85
2023/02/02 00:48:43;;;;;;;5.27;1.87;;;6.70;99.90;;;;;;5054705;28;20196;-86
2023/02/02 00:51:09;;;;;;;0.73;0.60;;;6.70;99.90;;;;;;5054685;28;20205;-86
2023/02/02 00:53:35;;;;;;;1.90;0.83;;;6.70;99.90;;;;;;5054490;28;20698;-87
2023/02/02 00:56:00;;;;;;;1.70;1.00;;;6.70;99.90;;;;;;5037856;28;20238;-86
2023/02/02 00:58:26;;;;;;;1.43;1.20;;;6.70;99.90;;;;;;5038037;28;20650;-86
2023/02/02 01:00:52;;;;;;;5.97;1.23;;;6.70;99.90;;;;;;5021071;28;20221;-86
2023/02/02 01:03:17;;;;;;;7.97;3.17;;;6.70;99.90;;;;;;5036852;28;20305;-85
2023/02/02 01:05:43;;;;;;;1.60;1.57;;;6.70;99.90;;;;;;5021166;28;20186;-86
2023/02/02 01:08:09;;;;;;;1.00;0.43;;;6.80;99.90;;;;;;5071679;28;20787;-86
2023/02/02 01:10:37;;;;;;;1.40;1.13;;;6.80;99.90;;;;;;5054336;28;20177;-86
2023/02/02 01:13:03;;;;;;;0.60;0.60;;;6.80;99.90;;;;;;5021089;28;20696;-86
2023/02/02 01:15:29;;;;;;;0.83;0.83;;;6.80;99.90;;;;;;5053495;28;20177;-85
2023/02/02 01:17:56;;;;;;;2.20;1.87;;;6.80;99.90;;;;;;5020378;28;20208;-84
2023/02/02 01:20:23;;;;;;;1.70;1.60;;;6.80;99.90;;;;;;5054200;28;20182;-85
2023/02/02 01:22:49;;;;;;;0.63;0.63;;;6.80;99.90;;;;;;5054448;28;20245;-85
2023/02/02 01:25:15;;;;;;;0.60;0.60;;;6.80;99.90;;;;;;5037681;28;20630;-85
2023/02/02 01:27:40;;;;;;;4.13;2.73;;;6.80;99.90;;;;;;5037534;28;20185;-84
2023/02/02 01:30:07;;;;;;;0.40;0.40;;;6.80;99.90;;;;;;5037041;28;20283;-85
2023/02/02 01:32:33;;;;;;;7.33;1.07;;;6.90;99.90;;;;;;5070875;28;20669;-86
2023/02/02 01:34:58;;;;;;;4.43;1.77;;;6.80;99.90;;;;;;5071568;28;20208;-86
2023/02/02 01:37:24;;;;;;;18.43;2.10;;;6.80;99.90;;;;;;5036860;28;20202;-86
2023/02/02 01:39:50;;;;;;;3.90;1.33;;;6.90;99.90;;;;;;5020722;28;20542;-87
2023/02/02 01:42:21;;;;;;;4.53;0.87;;;6.90;99.90;;;;;;5036698;28;20201;-85
2023/02/02 01:45:12;;;;;;;6.70;1.40;;;6.80;99.90;;;;;;5070979;28;20212;-86
2023/02/02 01:47:46;;;;;;;3.50;1.23;;;6.80;99.90;;;;;;5071174;28;20158;-86
2023/02/02 01:50:15;;;;;;;0.53;0.50;;;6.90;99.90;;;;;;5053183;28;20179;-87
2023/02/02 01:52:44;;;;;;;0.50;0.50;;;6.90;99.90;;;;;;5053607;28;20170;-86
2023/02/02 01:55:13;;;;;;;2.67;2.07;;;6.90;99.90;;;;;;5053543;28;20173;-85
2023/02/02 01:57:41;;;;;;;1.60;1.30;;;6.90;99.90;;;;;;5070899;28;20251;-85
2023/02/02 02:00:09;;;;;;;6.83;2.67;;;6.90;99.90;;;;;;5053167;28;20181;-85
2023/02/02 02:02:37;;;;;;;4.03;1.60;;;6.90;99.90;;;;;;5052700;28;20229;-85
2023/02/02 02:05:04;;;;;;;2.57;1.90;;;6.90;99.90;;;;;;5036764;28;20178;-85
2023/02/02 02:07:30;;;;;;;1.07;1.07;;;6.90;99.90;;;;;;5036988;28;20187;-87
2023/02/02 02:09:56;;;;;;;0.40;0.40;;;7.00;99.90;;;;;;5071101;28;20174;-85
2023/02/02 02:12:22;;;;;;;4.73;1.40;;;7.00;99.90;;;;;;5036623;28;20181;-87
2023/02/02 02:17:40;;;;;;;0.33;0.33;;;6.90;99.90;;;;;;5070686;28;20660;-83
2023/02/02 02:26:52;;;;;;;0.77;0.57;;;7.00;99.90;;;;;;5070217;28;20181;-87
2023/02/02 02:29:56;;;;;;;0.20;0.20;;;7.10;99.90;;;;;;5052266;28;20173;-87
2023/02/02 02:32:40;;;;;;;0.93;0.67;;;7.00;99.90;;;;;;5006422;28;20469;-87
2023/02/02 02:35:08;;;;;;;3.00;0.77;;;7.00;99.90;;;;;;5052453;28;20177;-84
2023/02/02 02:37:53;;;;;;;5.53;0.53;;;7.00;99.90;;;;;;5070685;28;20227;-85
2023/02/02 02:40:29;;;;;;;0.20;0.20;;;7.00;99.90;;;;;;5070390;28;20161;-86
2023/02/02 02:43:01;;;;;;;0.40;0.40;;;7.00;99.90;;;;;;5069976;28;20165;-86
2023/02/02 02:45:28;;;;;;;1.40;0.50;;;7.10;99.90;;;;;;5052037;28;20192;-86
2023/02/02 02:47:54;;;;;;;4.03;0.70;;;7.10;99.90;;;;;;5069943;28;20185;-86
2023/02/02 02:50:21;;;;;;;2.30;1.30;;;7.00;99.90;;;;;;5035950;28;20260;-86
2023/02/02 02:52:50;;;;;;;0.23;0.23;;;7.00;99.90;;;;;;5035938;28;20273;-86
2023/02/02 02:55:16;;;;;;;0.80;0.80;;;7.00;99.90;;;;;;5051915;28;20201;-86
2023/02/02 02:58:08;;;;;;;2.47;1.50;;;7.00;99.90;;;;;;5052198;28;20239;-86
2023/02/02 03:00:46;;;;;;;2.57;0.73;;;7.00;99.90;;;;;;5070494;28;20258;-86
2023/02/02 03:03:49;;;;;;;2.57;1.37;;;7.00;99.90;;;;;;5052114;28;20581;-85
2023/02/02 03:06:35;;;;;;;12.27;1.27;;;6.90;99.90;;;;;;5070311;28;20229;-85
2023/02/02 03:09:07;;;;;;;2.20;1.83;;;6.90;99.90;;;;;;5052690;28;20626;-85
2023/02/02 03:11:34;;;;;;;0.20;0.20;;;6.90;99.90;;;;;;5070320;28;20169;-84
2023/02/02 03:14:00;;;;;;;0.47;0.47;;;6.90;99.90;;;;;;5052241;28;20169;-85
2023/02/02 03:16:26;;;;;;;4.70;0.97;;;6.90;99.90;;;;;;5068792;28;20212;-85
2023/02/02 03:18:54;;;;;;;1.10;0.80;;;6.90;99.90;;;;;;5051404;28;20191;-85
2023/02/02 03:21:20;;;;;;;0.40;0.40;;;6.90;99.90;;;;;;5034754;28;20642;-85
2023/02/02 03:23:46;;;;;;;10.00;0.90;;;6.90;99.90;;;;;;5034618;28;20177;-85
2023/02/02 03:26:12;;;;;;;12.60;0.93;;;6.90;99.90;;;;;;5018013;28;20208;-85
2023/02/02 03:28:38;;;;;;;0.33;0.33;;;6.90;99.90;;;;;;5034626;28;20201;-84
2023/02/02 03:31:04;;;;;;;0.20;0.20;;;6.80;99.90;;;;;;5034683;28;20205;-84
2023/02/02 03:33:31;;;;;;;0.67;0.67;;;6.80;99.90;;;;;;5051727;28;20174;-86
2023/02/02 03:35:57;;;;;;;0.93;0.93;;;6.70;99.90;;;;;;5069234;28;20267;-86
2023/02/02 03:38:23;;;;;;;0.27;0.27;;;6.70;99.90;;;;;;5051580;28;20407;-86
2023/02/02 03:40:50;;;;;;;0.23;0.23;;;6.70;99.90;;;;;;5069809;28;20649;-85
2023/02/02 03:43:20;;;;;;;0.20;0.20;;;6.70;99.90;;;;;;5035412;28;20196;-86
2023/02/02 03:45:46;;;;;;;2.83;0.87;;;6.70;99.90;;;;;;5035364;28;20211;-85
2023/02/02 03:48:12;;;;;;;0.40;0.40;;;6.70;99.90;;;;;;5034745;28;20185;-84
2023/02/02 03:50:38;;;;;;;0.57;0.57;;;6.70;99.90;;;;;;5068687;28;20183;-85
2023/02/02 03:53:04;;;;;;;0.20;0.20;;;6.70;99.90;;;;;;5068669;28;20189;-85
2023/02/02 03:55:30;;;;;;;1.03;0.93;;;6.70;99.90;;;;;;5037023;28;20177;-85
2023/02/02 03:57:55;;;;;;;2.10;0.83;;;6.60;99.90;;;;;;5037537;28;20251;-85
2023/02/02 04:00:21;;;;;;;0.53;0.53;;;6.70;99.90;;;;;;5054356;28;20247;-85
2023/02/02 04:02:47;;;;;;;0.30;0.30;;;6.60;99.90;;;;;;5037479;28;20233;-84
2023/02/02 04:05:13;;;;;;;0.30;0.30;;;6.60;99.90;;;;;;5054323;28;20268;-84
2023/02/02 04:07:39;;;;;;;0.57;0.30;;;6.60;99.90;;;;;;5054382;28;20640;-85
2023/02/02 04:10:05;;;;;;;0.27;0.27;;;6.60;99.90;;;;;;5037869;28;20662;-84
2023/02/02 04:12:30;;;;;;;0.33;0.33;;;6.60;99.90;;;;;;5055056;28;20182;-83
2023/02/02 04:14:56;;;;;;;0.77;0.77;;;6.60;99.90;;;;;;5022160;28;20198;-85
2023/02/02 04:17:22;;;;;;;0.40;0.40;;;6.50;99.90;;;;;;5054750;28;20213;-85
2023/02/02 04:19:48;;;;;;;0.30;0.30;;;6.50;99.90;;;;;;5022132;28;20177;-84
2023/02/02 04:22:13;;;;;;;0.20;0.20;;;6.50;99.90;;;;;;5038057;28;20181;-84
2023/02/02 04:24:39;;;;;;;0.40;0.40;;;6.50;99.90;;;;;;5038402;28;20638;-86
2023/02/02 04:27:05;;;;;;;0.20;0.20;;;6.50;99.90;;;;;;5038192;28;20631;-86
2023/02/02 04:29:30;;;;;;;0.37;0.37;;;6.50;99.90;;;;;;5054268;28;20177;-83
2023/02/02 04:31:56;;;;;;;0.63;0.63;;;6.50;99.90;;;;;;5037920;28;20514;-83
2023/02/02 04:34:22;;;;;;;0.30;0.30;;;6.50;99.90;;;;;;5054500;28;20192;-83
2023/02/02 04:36:48;;;;;;;4.83;1.67;;;6.50;99.90;;;;;;5021182;28;20205;-83
2023/02/02 04:39:13;;;;;;;0.33;0.33;;;6.50;99.90;;;;;;5037788;28;20185;-84
2023/02/02 04:41:39;;;;;;;0.20;0.20;;;6.40;99.90;;;;;;5037995;28;20177;-83
2023/02/02 04:44:16;;;;;;;0.70;0.70;;;6.40;99.90;;;;;;5037554;28;20522;-82
2023/02/02 04:46:43;;;;;;;0.60;0.60;;;6.40;99.90;;;;;;5054586;28;20176;-84
2023/02/02 04:49:10;;;;;;;0.23;0.23;;;6.40;99.90;;;;;;5054462;28;20207;-84
2023/02/02 04:51:37;;;;;;;0.50;0.50;;;6.40;99.90;;;;;;5054111;28;20181;-84
2023/02/02 04:54:03;;;;;;;0.53;0.53;;;6.40;99.90;;;;;;5071816;28;20181;-85
2023/02/02 04:56:29;;;;;;;0.30;0.30;;;6.40;99.90;;;;;;5054030;28;20201;-85
2023/02/02 04:58:55;;;;;;;2.37;0.63;;;6.40;99.90;;;;;;5072022;28;20617;-84
2023/02/02 05:01:21;;;;;;;0.30;0.30;;;6.40;99.90;;;;;;5037503;28;20209;-83
2023/02/02 05:03:48;;;;;;;1.07;0.93;;;6.30;99.90;;;;;;5037164;28;20173;-85
2023/02/02 05:06:14;;;;;;;2.30;1.43;;;6.30;99.90;;;;;;5036359;28;20569;-84
2023/02/02 05:08:42;;;;;;;0.27;0.27;;;6.30;99.90;;;;;;5037326;28;20239;-83
2023/02/02 05:11:14;;;;;;;0.50;0.50;;;6.30;99.90;;;;;;5037481;28;20185;-83
2023/02/02 05:13:44;;;;;;;0.73;0.57;;;6.30;99.90;;;;;;5053823;28;20598;-83
2023/02/02 05:16:10;;;;;;;0.20;0.20;;;6.30;99.90;;;;;;5053827;28;20178;-84
2023/02/02 05:18:36;;;;;;;1.20;0.50;;;6.30;99.90;;;;;;5021244;28;20207;-83
2023/02/02 05:21:02;;;;;;;0.20;0.20;;;6.30;99.90;;;;;;5020645;28;20287;-84
2023/02/02 05:23:29;;;;;;;1.30;0.87;;;6.30;99.90;;;;;;5071261;28;20239;-83
2023/02/02 05:25:55;;;;;;;7.57;1.03;;;6.30;99.90;;;;;;5053398;28;20192;-84
2023/02/02 05:28:22;;;;;;;0.33;0.23;;;6.30;99.90;;;;;;5036871;28;20185;-85
2023/02/02 05:30:47;;;;;;;0.33;0.33;;;6.30;99.90;;;;;;5053262;28;20272;-85
2023/02/02 05:33:14;;;;;;;0.50;0.50;;;6.30;99.90;;;;;;5020642;28;20269;-84
2023/02/02 05:35:40;;;;;;;0.47;0.47;;;6.30;99.90;;;;;;5036376;28;20315;-84
2023/02/02 05:38:06;;;;;;;0.20;0.20;;;6.30;99.90;;;;;;5019866;28;20753;-84
2023/02/02 05:40:31;;;;;;;8.20;0.47;;;6.30;99.90;;;;;;5036556;28;20314;-84
2023/02/02 05:42:57;;;;;;;7.83;1.13;;;6.40;99.90;;;;;;5053424;28;20516;-82
2023/02/02 05:45:23;;;;;;;0.47;0.47;;;6.40;99.90;;;;;;5036246;28;20388;-87
2023/02/02 05:47:52;;;;;;;2.30;1.60;;;6.40;99.90;;;;;;5071434;28;20177;-87
2023/02/02 05:50:17;;;;;;;10.93;0.83;;;6.40;99.90;;;;;;5053702;28;20219;-85
2023/02/02 05:52:45;;;;;;;1.37;0.97;;;6.40;99.90;;;;;;5037260;28;20631;-87
2023/02/02 05:55:11;;;;;;;0.27;0.27;;;6.40;99.90;;;;;;5053545;28;20169;-89
2023/02/02 05:57:37;;;;;;;0.43;0.43;;;6.40;99.90;;;;;;5070647;28;20213;-89
2023/02/02 06:00:03;;;;;;;1.13;0.23;;;6.30;99.90;;;;;;5053150;28;20185;-88
2023/02/02 06:02:29;;;;;;;1.60;0.73;;;6.30;99.90;;;;;;5052840;28;20228;-89
2023/02/02 06:04:55;;;;;;;0.33;0.33;;;6.30;99.90;;;;;;5070655;28;20198;-88
2023/02/02 06:07:21;;;;;;;0.20;0.20;;;6.30;99.90;;;;;;5052890;28;20181;-89
2023/02/02 06:09:46;;;;;;;0.20;0.20;;;6.30;99.90;;;;;;5036846;28;20260;-89
2023/02/02 06:12:12;;;;;;;0.20;0.20;;;6.20;99.90;;;;;;5052960;28;20182;-89
2023/02/02 06:14:38;;;;;;;2.30;0.70;;;6.20;99.90;;;;;;5070734;28;20177;-89
2023/02/02 06:17:05;;;;;;;0.40;0.40;;;6.10;99.90;;;;;;5052375;28;20563;-87
2023/02/02 06:19:31;;;;;;;0.23;0.23;;;6.20;99.90;;;;;;5036664;28;20182;-87
2023/02/02 06:21:57;;;;;;;2.47;1.50;;;6.20;99.90;;;;;;5020101;28;20180;-87
2023/02/02 06:24:23;;;;;;;3.60;0.73;;;6.10;99.90;;;;;;5019928;28;20177;-88
2023/02/02 06:26:49;;;;;;;0.10;0.10;;;6.10;99.90;;;;;;5036447;28;20209;-87
2023/02/02 06:29:15;;;;;;;0.37;0.37;;;6.20;99.90;;;;;;5070258;28;20213;-89
2023/02/02 06:31:41;;;;;;;0.23;0.23;;;6.20;99.90;;;;;;5036033;28;20215;-88
2023/02/02 06:34:09;;;;;;;0.30;0.30;;;6.20;99.90;;;;;;5070110;28;20223;-89
2023/02/02 06:36:35;;;;;;;0.23;0.23;;;6.20;99.90;;;;;;5070352;28;20300;-89
2023/02/02 06:39:03;;;;;;;0.27;0.27;;;6.20;99.90;;;;;;5070335;28;20381;-89
2023/02/02 06:41:30;;;;;;;0.40;0.40;;;6.20;99.90;;;;;;5070450;28;20545;-89
2023/02/02 06:43:56;;;;;;;0.27;0.27;;;6.20;99.90;;;;;;5052436;28;20192;-89
2023/02/02 06:46:22;;;;;;;0.30;0.30;;;6.20;99.90;;;;;;5052154;28;20235;-89
2023/02/02 06:48:47;;;;;;;0.30;0.30;;;6.20;99.90;;;;;;5036202;28;20181;-89
2023/02/02 06:51:13;;;;;;;0.40;0.40;;;6.20;99.90;;;;;;5052804;28;20177;-88
2023/02/02 06:53:39;;;;;;;0.20;0.20;;;6.20;99.90;;;;;;5052394;28;20228;-91
2023/02/02 06:56:07;;;;;;;0.90;0.73;;;6.20;99.90;;;;;;5036325;28;20181;-89
2023/02/02 06:58:33;;;;;;;0.20;0.20;;;6.30;99.90;;;;;;5035851;28;20255;-89
2023/02/02 07:01:08;;;;;;;0.40;0.40;;;6.20;99.90;;;;;;5053014;28;20309;-92
2023/02/02 07:03:34;;;;;;;0.83;0.83;;;6.30;99.90;;;;;;5052328;28;20220;-89
2023/02/02 07:06:18;;;;;;;0.80;0.80;;;6.30;99.90;;;;;;5052531;28;20170;-92
2023/02/02 07:08:45;;;;;;;0.30;0.30;;;6.30;99.90;;;;;;5056524;28;20170;-91
2023/02/02 07:11:11;;;;;;;0.20;0.20;;;6.40;99.90;;;;;;5054465;28;20223;-89
2023/02/02 07:13:37;;;;;;;0.20;0.20;;;6.30;99.90;;;;;;5053672;28;20237;-93
2023/02/02 07:16:08;;;;;;;0.37;0.37;;;6.40;99.90;;;;;;5054455;28;20206;-89
2023/02/02 07:18:35;;;;;;;0.67;0.67;;;6.40;99.90;;;;;;5053906;28;20395;-90
2023/02/02 07:21:02;;;;;;;0.50;0.50;;;6.40;99.90;;;;;;5055251;28;20185;-91
2023/02/02 07:23:28;;;;;;;0.73;0.47;;;6.40;99.90;;;;;;5037422;28;20584;-91
2023/02/02 07:26:06;;;;;;;0.30;0.30;;;6.40;99.90;;;;;;5053247;28;20174;-92
2023/02/02 07:28:32;;;;;;;0.40;0.40;;;6.40;99.90;;;;;;5052544;28;20176;-91
2023/02/02 07:30:58;;;;;;;0.60;0.60;;;6.40;99.90;;;;;;5039517;28;20281;-91
2023/02/02 07:33:25;;;;;;;0.40;0.40;;;6.40;99.90;;;;;;5056054;28;20642;-92
2023/02/02 07:35:51;;;;;;;0.30;0.30;;;6.50;99.90;;;;;;5056320;28;20661;-88
2023/02/02 07:38:17;;;;;;;0.30;0.30;;;6.50;99.90;;;;;;5073598;28;20292;-89
2023/02/02 07:40:43;;;;;;;0.47;0.47;;;6.50;99.90;;;;;;5056198;28;20182;-89
2023/02/02 07:43:09;;;;;;;0.50;0.50;;;6.50;99.90;;;;;;5056035;28;20193;-89
2023/02/02 07:45:38;;;;;;;0.37;0.37;;;6.50;99.90;;;;;;5055917;28;20736;-89
2023/02/02 07:48:04;;;;;;;0.30;0.30;;;6.60;99.90;;;;;;5056963;28;20779;-86
2023/02/02 07:50:30;;;;;;;0.47;0.47;;;6.60;99.90;;;;;;5056137;28;20177;-87
2023/02/02 07:52:58;;;;;;;0.20;0.20;;;6.60;99.90;;;;;;5056103;28;20178;-86
2023/02/02 07:55:24;;;;;;;0.40;0.40;;;6.60;99.90;;;;;;5055790;28;20181;-86
2023/02/02 07:57:54;;;;;;;0.23;0.23;;;6.60;99.90;;;;;;5039078;28;20212;-86
2023/02/02 08:00:20;;;;;;;0.30;0.30;;;6.60;99.90;;;;;;5055724;28;20173;-87
2023/02/02 08:02:49;;;;;;;0.50;0.50;;;6.70;99.90;;;;;;5055419;28;20805;-87
2023/02/02 08:05:15;;;;;;;0.60;0.60;;;6.70;99.90;;;;;;5055922;28;20190;-85
2023/02/02 08:07:42;;;;;;;0.20;0.20;;;6.80;99.90;;;;;;5055569;28;20231;-87
2023/02/02 08:10:08;;;;;;;0.40;0.30;;;6.70;99.90;;;;;;5055209;28;20646;-86
2023/02/02 08:12:34;;;;;;;2.37;1.40;;;6.80;99.90;;;;;;5039021;28;20212;-86
2023/02/02 08:15:00;;;;;;;0.20;0.20;;;6.80;99.90;;;;;;5055543;28;20209;-86
2023/02/02 08:17:25;;;;;;;0.70;0.70;;;6.90;99.90;;;;;;5038891;28;20203;-87
2023/02/02 08:19:51;;;;;;;0.33;0.33;;;6.90;99.90;;;;;;5039907;28;20231;-87
2023/02/02 08:22:17;;;;;;;0.67;0.60;;;6.90;99.90;;;;;;5057840;28;20181;-89
2023/02/02 08:24:43;;;;;;;1.83;1.03;;;6.90;99.90;;;;;;5057600;28;20161;-87
2023/02/02 08:27:09;;;;;;;3.63;0.57;;;7.00;99.90;;;;;;5057320;28;20190;-85
2023/02/02 08:29:37;;;;;;;0.67;0.67;;;7.00;99.90;;;;;;5055433;28;20169;-89
2023/02/02 08:32:04;;;;;;;0.40;0.40;;;7.10;99.90;;;;;;5055552;28;20181;-88
2023/02/02 08:34:30;;;;;;;0.93;0.60;;;7.10;99.90;;;;;;5055359;28;20173;-87
2023/02/02 08:36:55;;;;;;;4.47;0.53;;;7.10;99.90;;;;;;5055541;28;20714;-88
2023/02/02 08:39:21;;;;;;;0.40;0.40;;;7.10;99.90;;;;;;5055549;28;20186;-88
2023/02/02 08:41:47;;;;;;;2.23;1.40;;;7.10;99.90;;;;;;5038368;28;20204;-89
2023/02/02 08:44:14;;;;;;;0.43;0.40;;;7.10;99.90;;;;;;5072668;28;20173;-88
2023/02/02 08:46:41;;;;;;;0.63;0.57;;;7.10;99.90;;;;;;5054938;28;20181;-87
2023/02/02 08:49:11;;;;;;;1.27;1.17;;;7.10;99.90;;;;;;5054840;28;20177;-88
2023/02/02 08:51:37;;;;;;;0.13;0.13;;;7.10;99.90;;;;;;5054601;28;20174;-88
2023/02/02 08:54:03;;;;;;;0.53;0.53;;;7.10;99.90;;;;;;5054750;28;20295;-89
2023/02/02 08:56:29;;;;;;;0.20;0.20;;;7.10;99.90;;;;;;5072073;28;20189;-87
2023/02/02 08:58:57;;;;;;;0.37;0.37;;;7.20;99.90;;;;;;5038198;28;20718;-87
2023/02/02 09:01:25;;;;;;;13.50;0.63;;;7.20;99.90;;;;;;5038268;28;20207;-87
2023/02/02 09:03:56;;;;;;;0.37;0.37;;;7.20;99.90;;;;;;5054487;28;20170;-88
2023/02/02 09:06:27;;;;;;;1.27;1.00;;;7.20;99.90;;;;;;5054646;28;20173;-88
2023/02/02 09:08:53;;;;;;;0.50;0.50;;;7.30;99.90;;;;;;5054707;28;20180;-87
2023/02/02 09:11:19;;;;;;;3.30;0.80;;;7.30;99.90;;;;;;5054406;28;20173;-88
2023/02/02 09:13:48;;;;;;;0.67;0.67;;;7.30;99.90;;;;;;5037525;28;20185;-87
2023/02/02 09:16:16;;;;;;;0.60;0.60;;;7.40;99.90;;;;;;5054247;28;20184;-89
2023/02/02 09:18:43;;;;;;;0.30;0.30;;;7.40;99.90;;;;;;5071904;28;20223;-86
2023/02/02 09:21:11;;;;;;;0.30;0.30;;;7.40;99.90;;;;;;5054342;28;20715;-88
2023/02/02 09:23:39;;;;;;;0.20;0.20;;;7.50;99.90;;;;;;5054323;28;20635;-90
2023/02/02 09:26:25;;;;;;;0.97;0.63;;;7.50;99.90;;;;;;5054381;28;20204;-90
2023/02/02 09:28:54;;;;;;;0.20;0.20;;;7.40;99.90;;;;;;5071994;28;20169;-89
2023/02/02 09:31:20;;;;;;;5.27;0.70;;;7.40;99.90;;;;;;5071764;28;20255;-88
2023/02/02 09:33:46;;;;;;;0.67;0.50;;;7.40;99.90;;;;;;5053752;28;20530;-89
2023/02/02 09:36:20;;;;;;;0.30;0.30;;;7.40;99.90;;;;;;5053783;28;20180;-88
2023/02/02 09:38:47;;;;;;;0.40;0.40;;;7.40;99.90;;;;;;5036644;28;20181;-87
2023/02/02 09:41:18;;;;;;;0.20;0.20;;;7.40;99.90;;;;;;5037005;28;20177;-87
2023/02/02 09:44:04;;;;;;;1.00;0.80;;;7.50;99.90;;;;;;5053244;28;20187;-88
2023/02/02 09:46:39;;;;;;;0.40;0.40;;;7.60;99.90;;;;;;5071147;28;20177;-88
2023/02/02 09:49:10;;;;;;;0.10;0.10;;;7.60;99.90;;;;;;5053430;28;20263;-89
2023/02/02 09:51:42;;;;;;;5.23;0.63;;;7.50;99.90;;;;;;5070296;28;20196;-89
2023/02/02 09:54:26;;;;;;;0.53;0.53;;;7.60;99.90;;;;;;5052773;28;20215;-88
2023/02/02 09:56:56;;;;;;;0.30;0.30;;;7.70;99.90;;;;;;5052706;28;20433;-90
2023/02/02 09:59:26;;;;;;;0.40;0.40;;;7.70;99.90;;;;;;5070844;28;20181;-89
2023/02/02 10:01:56;;;;;;;0.20;0.20;;;7.70;99.90;;;;;;5070228;28;20689;-89
2023/02/02 10:04:28;;;;;;;4.33;0.57;;;7.70;99.90;;;;;;5052935;28;20252;-89
2023/02/02 10:06:57;;;;;;;0.57;0.40;;;7.80;99.90;;;;;;5052928;28;20185;-89
2023/02/02 10:10:09;;;;;;;0.67;0.43;;;7.70;99.90;;;;;;5053214;28;20181;-88
2023/02/02 10:12:46;;;;;;;0.20;0.20;;;7.70;99.90;;;;;;5053464;28;20650;-92
2023/02/02 10:15:22;;;;;;;0.57;0.57;;;7.60;99.90;;;;;;5053404;28;20635;-89
2023/02/02 10:17:54;;;;;;;0.13;0.13;;;7.50;99.90;;;;;;5053447;28;20650;-90
2023/02/02 10:20:43;;;;;;;0.20;0.20;;;7.30;99.90;;;;;;5053967;28;20162;-90
2023/02/02 10:23:33;;;;;;;0.33;0.33;;;7.30;99.90;;;;;;5054767;28;20227;-93
2023/02/02 10:26:05;;;;;;;0.20;0.20;;;7.50;99.90;;;;;;5071519;28;20268;-88
2023/02/02 10:28:37;;;;;;;3.00;0.63;;;7.60;99.90;;;;;;5070814;28;20208;-88
2023/02/02 10:31:03;;;;;;;0.40;0.33;;;7.70;99.90;;;;;;5052551;28;20630;-88
2023/02/02 10:33:41;;;;;;;0.20;0.20;;;7.80;99.90;;;;;;5022727;28;20186;-89
2023/02/02 10:36:17;;;;;;;0.43;0.43;;;7.90;99.90;;;;;;5073173;28;20170;-88
2023/02/02 10:39:08;;;;;;;0.37;0.33;;;7.90;99.90;;;;;;5052783;28;20201;-89
2023/02/02 10:42:03;;;;;;;0.30;0.30;;;8.00;99.90;;;;;;5051903;28;20178;-89
2023/02/02 10:44:39;;;;;;;1.10;0.77;;;8.20;99.90;;;;;;5052150;28;20665;-88
2023/02/02 10:47:11;;;;;;;0.40;0.40;;;8.20;99.90;;;;;;5071772;28;20173;-89
2023/02/02 10:49:39;;;;;;;0.30;0.30;;;8.30;99.90;;;;;;5055604;28;20654;-90
2023/02/02 10:52:10;;;;;;;0.30;0.30;;;8.40;99.90;;;;;;5071293;28;20246;-89
2023/02/02 10:55:03;;;;;;;0.73;0.50;;;8.50;99.90;;;;;;5070982;28;20181;-90
2023/02/02 10:57:40;;;;;;;0.50;0.50;;;8.60;99.90;;;;;;5056370;28;20197;-89
2023/02/02 11:00:34;;;;;;;1.87;0.97;;;8.70;99.90;;;;;;5072351;28;20176;-89
2023/02/02 11:03:03;;;;;;;0.30;0.30;;;8.50;99.90;;;;;;5050262;28;20284;-89
2023/02/02 11:08:22;;;;;;;13.37;0.87;;;8.50;99.90;;;;;;5055661;28;20166;-89
2023/02/02 11:10:53;;;;;;;0.40;0.40;;;8.60;99.90;;;;;;5055544;28;20181;-89
2023/02/02 11:13:31;;;;;;;0.30;0.30;;;8.70;99.90;;;;;;5055139;28;20171;-90
2023/02/02 11:16:15;;;;;;;1.40;0.70;;;8.50;99.90;;;;;;5055139;28;20228;-89
2023/02/02 11:18:42;;;;;;;0.30;0.30;;;8.50;99.90;;;;;;5055588;28;20217;-90
2023/02/02 11:21:36;;;;;;;0.30;0.30;;;8.60;99.90;;;;;;5056738;28;20276;-88
2023/02/02 11:24:27;;;;;;;0.80;0.80;;;8.60;99.90;;;;;;5054065;28;20273;-90
2023/02/02 11:27:03;;;;;;;0.97;0.97;;;8.40;99.90;;;;;;5055558;28;20177;-89
2023/02/02 11:29:40;;;;;;;0.43;0.43;;;8.20;99.90;;;;;;5053963;28;20177;-88
2023/02/02 11:32:17;;;;;;;0.60;0.60;;;8.00;99.90;;;;;;5054921;28;20190;-89
2023/02/02 11:34:42;;;;;;;0.50;0.50;;;8.00;99.90;;;;;;5054275;28;20174;-90
2023/02/02 11:37:12;;;;;;;0.43;0.30;;;8.10;99.90;;;;;;5056112;28;20207;-88
2023/02/02 11:39:42;;;;;;;6.03;0.40;;;8.10;99.90;;;;;;5054283;28;20185;-90
2023/02/02 11:42:20;;;;;;;0.70;0.60;;;7.90;99.90;;;;;;5055471;28;20158;-88
2023/02/02 11:44:52;;;;;;;0.83;0.60;;;8.00;99.90;;;;;;5054103;28;20177;-88
2023/02/02 11:47:24;;;;;;;0.60;0.60;;;8.10;99.90;;;;;;5054614;28;20174;-90
2023/02/02 11:49:52;;;;;;;0.23;0.23;;;8.00;99.90;;;;;;5056023;28;20162;-88
2023/02/02 11:52:20;;;;;;;0.40;0.40;;;7.90;99.90;;;;;;5055292;28;20704;-90
2023/02/02 11:54:50;;;;;;;0.33;0.33;;;7.90;99.90;;;;;;5039137;28;20228;-90
2023/02/02 11:57:21;;;;;;;3.27;1.23;;;7.80;99.90;;;;;;5058322;28;20198;-90
2023/02/02 11:59:49;;;;;;;0.50;0.50;;;7.70;99.90;;;;;;5055638;28;20167;-89
2023/02/02 12:02:25;;;;;;;0.30;0.30;;;7.60;99.90;;;;;;5061303;28;20435;-87
2023/02/02 12:04:54;;;;;;;0.80;0.80;;;7.60;99.90;;;;;;5057460;28;20177;-87
2023/02/02 12:07:31;;;;;;;2.73;1.33;;;7.60;99.90;;;;;;5056123;28;20799;-90
2023/02/02 12:10:00;;;;;;;0.63;0.50;;;7.60;99.90;;;;;;5056149;28;20165;-89
2023/02/02 12:12:31;;;;;;;0.77;0.43;;;7.60;99.90;;;;;;5074030;28;20177;-89
2023/02/02 12:15:06;;;;;;;0.50;0.40;;;7.60;99.90;;;;;;5055083;28;20229;-90
2023/02/02 12:17:46;;;;;;;0.40;0.40;;;7.50;99.90;;;;;;5055941;28;20200;-87
2023/02/02 12:20:35;;;;;;;2.03;1.17;;;7.60;99.90;;;;;;5056151;28;20197;-88
2023/02/02 12:23:32;;;;;;;12.27;3.03;;;7.60;99.90;;;;;;5056002;28;20176;-87
2023/02/02 12:26:19;;;;;;;1.03;1.03;;;7.60;99.90;;;;;;5055338;28;20525;-87
2023/02/02 12:28:57;;;;;;;0.80;0.80;;;7.60;99.90;;;;;;5055131;28;20169;-89
2023/02/02 12:31:39;;;;;;;3.30;3.10;;;7.60;99.90;;;;;;5054738;28;20177;-88
2023/02/02 12:34:43;;;;;;;2.47;2.23;;;7.60;99.90;;;;;;5072872;28;20165;-87
2023/02/02 12:37:39;;;;;;;1.60;1.20;;;7.60;99.90;;;;;;5072796;28;20193;-86
2023/02/02 12:40:31;;;;;;;1.80;1.60;;;7.70;99.90;;;;;;5060869;28;20178;-87
2023/02/02 12:43:28;;;;;;;3.53;1.87;;;7.90;99.90;;;;;;5056711;28;20176;-89
2023/02/02 12:46:03;;;;;;;1.30;1.27;;;7.90;99.90;;;;;;5055427;28;20257;-89
2023/02/02 12:48:42;;;;;;;25.87;11.93;;;7.90;99.90;;;;;;5055670;28;20169;-88
2023/02/02 12:51:46;;;;;;;4.53;3.97;;;8.00;99.90;;;;;;5078890;28;20176;-89
2023/02/02 12:54:31;;;;;;;20.90;10.90;;;8.00;99.90;;;;;;5091857;28;20185;-86
2023/02/02 12:57:19;;;;;;;18.27;11.07;;;8.20;99.90;;;;;;5054073;28;20305;-89
2023/02/02 13:00:09;;;;;;;7.93;4.70;;;8.20;99.90;;;;;;5071921;28;20185;-86
2023/02/02 13:02:57;;;;;;;18.37;11.33;;;8.20;99.90;;;;;;5054454;28;20221;-89
2023/02/02 13:05:32;;;;;;;5.63;2.27;;;8.20;99.90;;;;;;5072130;28;20180;-89
2023/02/02 13:08:05;;;;;;;2.97;2.67;;;8.30;99.90;;;;;;5054663;28;20501;-87
2023/02/02 13:10:38;;;;;;;2.67;2.47;;;8.40;99.90;;;;;;5054969;28;20200;-89
2023/02/02 13:13:16;;;;;;;8.97;6.93;;;8.50;99.90;;;;;;5072027;28;20165;-87
2023/02/02 13:15:46;;;;;;;2.47;2.10;;;8.50;99.90;;;;;;5054246;28;20626;-86
2023/02/02 13:18:36;;;;;;;4.17;3.13;;;8.40;99.90;;;;;;5054092;28;20255;-87
2023/02/02 13:21:07;;;;;;;0.97;0.97;;;8.40;99.90;;;;;;5072153;28;20177;-89
2023/02/02 13:23:41;;;;;;;30.77;2.17;;;8.40;99.90;;;;;;5054478;28;20173;-88
2023/02/02 13:26:22;;;;;;;4.93;1.00;;;8.40;99.90;;;;;;5072132;28;20218;-88